EST,Max TemperatureF,Mean TemperatureF,Min TemperatureF,Max Dew PointF,MeanDew PointF,Min DewpointF,Max Humidity, Mean Humidity, Min Humidity, Max Sea Level PressureIn, Mean Sea Level PressureIn, Min Sea Level PressureIn, Max VisibilityMiles, Mean VisibilityMiles, Min VisibilityMiles, Max Wind SpeedMPH, Mean Wind SpeedMPH, Max Gust SpeedMPH,PrecipitationIn, CloudCover, Events, WindDirDegrees
2013-11-1,53,50,46,50,43,39,93,82,68,29.72,29.55,29.32,10,9,4,29,15,37,0.07,8,Rain,254
2013-11-2,50,46,42,45,42,36,93,86,66,30.10,29.83,29.70,10,8,3,13,8,18,0.04,8,Rain,287
2013-11-3,50,44,39,40,36,34,89,77,59,30.37,30.25,30.09,10,10,10,12,6,,0.00,6,,115
2013-11-4,52,44,37,41,36,33,83,68,54,30.38,30.31,30.25,10,10,10,20,12,25,0.00,1,,143
2013-11-5,55,52,50,48,44,41,82,71,60,30.34,30.27,30.10,10,10,10,17,10,24,0.00,7,,175
2013-11-6,57,50,42,54,46,38,94,86,56,30.08,29.96,29.86,10,7,2,24,16,32,0.23,8,Rain,249
2013-11-7,46,39,32,37,31,27,89,73,48,30.23,30.17,30.07,10,10,8,18,10,21,0.00,4,Snow,273
2013-11-8,46,38,30,32,30,28,92,71,50,30.34,30.25,30.13,10,9,5,13,8,,0.00,1,Snow,226
2013-11-9,60,52,44,40,35,29,68,56,47,30.10,29.97,29.89,10,10,10,23,18,34,0.00,3,,236
2013-11-10,46,40,33,34,30,26,85,66,55,30.33,30.22,30.02,10,10,8,24,15,30,0.00,4,,275
2013-11-11,46,38,28,39,31,19,93,77,61,30.40,30.18,30.07,10,8,2,22,11,25,0.14,8,Rain-Snow,309
2013-11-12,35,29,23,25,21,17,85,73,61,30.62,30.57,30.41,10,9,2,18,7,24,0.00,4,Snow,317
2013-11-13,37,28,19,21,18,16,85,65,46,30.60,30.47,30.26,10,10,10,17,11,25,0.00,0,,227
2013-11-14,52,41,30,24,21,19,66,50,31,30.25,30.12,30.02,10,10,10,20,14,28,0.00,0,,214
2013-11-15,52,44,37,31,28,24,62,52,40,30.06,30.03,30.00,10,10,10,14,9,,0.00,3,,199
2013-11-16,59,51,43,56,47,32,90,82,65,30.03,29.90,29.71,10,7,2,24,14,33,0.20,7,Rain,166
2013-11-17,64,56,46,61,54,36,94,83,65,29.72,29.52,29.25,10,8,1,41,19,51,0.66,8,Rain-Thunderstorm,200
2013-11-18,44,40,36,36,31,25,86,70,60,30.20,29.96,29.69,10,10,10,23,15,29,0.00,6,,285
2013-11-19,44,38,30,27,25,23,76,64,45,30.37,30.32,30.22,10,10,10,13,7,16,0.00,3,,18
2013-11-20,45,36,27,33,27,21,81,69,53,30.38,30.29,30.18,10,10,8,15,8,21,0.00,1,,127
2013-11-21,48,46,43,46,42,35,100,87,66,30.25,30.19,30.16,10,5,1,15,6,,0.50,8,Rain,171
2013-11-22,46,37,28,46,38,24,100,86,65,30.44,30.25,30.16,10,5,0,18,8,28,0.01,7,Fog-Rain,314
2013-11-23,30,24,17,24,18,12,86,79,54,30.62,30.47,30.37,10,5,0,26,13,34,0.00,7,Fog-Snow,331
2013-11-24,25,18,12,18,13,7,93,76,59,30.68,30.59,30.47,10,8,2,14,6,,0.00,6,Snow,257
2013-11-25,30,24,19,25,19,8,86,73,54,30.45,30.21,30.11,10,8,2,20,12,26,0.00,6,Snow,217
2013-11-26,34,30,25,28,25,19,88,80,72,30.13,30.06,29.98,10,8,2,17,9,24,0.00,7,Snow,245
2013-11-27,28,26,23,25,20,16,93,82,69,30.25,30.12,30.01,10,5,1,13,8,21,0.00,8,Snow,300
2013-11-28,30,26,23,21,17,14,81,68,58,30.45,30.31,30.23,10,10,10,17,7,,0.00,8,,212
2013-11-29,37,31,25,22,20,19,78,66,50,30.65,30.57,30.47,10,10,8,12,4,,0.02,3,,174
2013-11-30,48,39,30,30,26,21,72,61,46,30.48,30.27,30.11,10,9,7,18,10,25,0.00,1,,185